Time;durP1;ratioP1;P1;durP2;ratioP2;P2;SDS_P1;SDS_P2;PMS_P1;PMS_P2;Temp;Humidity;BMP_temperature;BMP_pressure;BME280_temperature;BME280_humidity;BME280_pressure;Samples;Min_cycle;Max_cycle;Signal;HPM_P1;HPM_P2
2023/06/19 00:00:12;;;;;;;8.57;5.72;;;22.80;99.90;;;;;;5054549;28;20040;-61
2023/06/19 00:02:42;;;;;;;7.63;5.75;;;22.70;99.90;;;;;;5058046;28;20028;-61
2023/06/19 00:05:09;;;;;;;7.90;5.63;;;22.60;99.90;;;;;;5052461;28;20029;-61
2023/06/19 00:07:36;;;;;;;6.15;5.55;;;22.60;99.90;;;;;;5055550;28;20032;-61
2023/06/19 00:10:02;;;;;;;7.88;5.38;;;22.60;99.90;;;;;;5048057;28;20110;-62
2023/06/19 00:12:28;;;;;;;6.95;5.38;;;22.60;99.90;;;;;;5053516;28;20162;-62
2023/06/19 00:14:53;;;;;;;7.00;5.15;;;22.50;99.90;;;;;;5049545;28;20222;-61
2023/06/19 00:17:19;;;;;;;7.85;4.85;;;22.50;99.90;;;;;;5056152;28;20039;-61
2023/06/19 00:19:45;;;;;;;5.60;5.10;;;22.50;99.90;;;;;;5053735;28;20048;-62
2023/06/19 00:22:10;;;;;;;5.05;4.55;;;22.40;99.90;;;;;;5054240;28;20029;-62
2023/06/19 00:24:36;;;;;;;7.90;4.88;;;22.40;99.90;;;;;;5050820;28;20044;-61
2023/06/19 00:27:02;;;;;;;6.43;4.97;;;22.70;99.90;;;;;;5051509;28;20602;-61
2023/06/19 00:29:29;;;;;;;7.60;5.15;;;22.30;99.90;;;;;;5052799;28;20059;-61
2023/06/19 00:31:54;;;;;;;6.85;5.00;;;22.50;99.90;;;;;;5059019;28;20029;-61
2023/06/19 00:34:20;;;;;;;5.20;4.70;;;22.40;99.90;;;;;;5050668;28;20107;-61
2023/06/19 00:36:46;;;;;;;7.28;4.75;;;22.60;99.90;;;;;;5052163;28;20129;-62
2023/06/19 00:39:12;;;;;;;6.05;5.20;;;22.30;99.90;;;;;;5053870;28;20123;-62
2023/06/19 00:41:39;;;;;;;5.60;5.00;;;22.50;99.90;;;;;;5056177;28;20119;-61
2023/06/19 00:44:05;;;;;;;5.80;4.97;;;22.70;99.90;;;;;;5065975;28;20036;-62
2023/06/19 00:46:31;;;;;;;8.88;5.60;;;22.50;99.90;;;;;;5060486;28;20045;-61
2023/06/19 00:48:57;;;;;;;7.38;4.93;;;22.60;99.90;;;;;;5050970;28;20554;-61
2023/06/19 00:51:23;;;;;;;5.65;5.07;;;22.40;99.90;;;;;;5051567;28;20100;-62
2023/06/19 00:53:49;;;;;;;6.80;4.80;;;22.10;99.90;;;;;;5050861;28;20564;-61
2023/06/19 00:56:17;;;;;;;6.38;5.20;;;22.20;99.90;;;;;;5049798;28;20171;-65
2023/06/19 00:58:44;;;;;;;6.55;5.30;;;22.10;99.90;;;;;;5050731;28;20052;-64
2023/06/19 01:01:10;;;;;;;6.18;5.00;;;22.10;99.90;;;;;;5058208;28;20041;-65
2023/06/19 01:03:36;;;;;;;6.50;5.05;;;22.00;99.90;;;;;;5053955;28;20639;-65
2023/06/19 01:06:05;;;;;;;9.93;5.60;;;21.80;99.90;;;;;;5046031;28;20032;-64
2023/06/19 01:08:55;;;;;;;7.38;5.00;;;22.00;99.90;;;;;;5049071;28;20052;-65
2023/06/19 01:11:25;;;;;;;7.38;5.20;;;22.10;99.90;;;;;;5048309;28;20745;-66
2023/06/19 01:13:57;;;;;;;5.90;5.28;;;21.70;99.90;;;;;;5049901;28;20390;-65
2023/06/19 01:16:24;;;;;;;7.28;5.13;;;21.80;99.90;;;;;;5056956;28;20029;-65
2023/06/19 01:18:50;;;;;;;5.20;4.70;;;21.70;99.90;;;;;;5052382;28;20127;-65
2023/06/19 01:21:17;;;;;;;6.47;5.00;;;21.70;99.90;;;;;;5047837;28;20052;-65
2023/06/19 01:23:43;;;;;;;7.28;5.10;;;21.70;99.90;;;;;;5049640;28;20043;-65
2023/06/19 01:26:10;;;;;;;7.53;5.15;;;21.70;99.90;;;;;;5054324;28;20499;-65
2023/06/19 01:28:37;;;;;;;5.72;5.10;;;21.70;99.90;;;;;;5051106;28;20075;-65
2023/06/19 01:31:18;;;;;;;5.85;5.10;;;21.60;99.90;;;;;;5054646;28;20488;-66
2023/06/19 01:33:45;;;;;;;6.70;5.20;;;22.10;99.90;;;;;;5050232;28;20144;-65
2023/06/19 01:36:12;;;;;;;5.72;5.03;;;21.70;99.90;;;;;;5049665;28;20040;-65
2023/06/19 01:38:39;;;;;;;6.57;5.03;;;21.70;99.90;;;;;;5049131;28;20046;-65
2023/06/19 01:41:06;;;;;;;5.70;5.10;;;21.60;99.90;;;;;;5050791;28;20060;-65
2023/06/19 01:43:32;;;;;;;7.43;5.57;;;21.50;99.90;;;;;;5055043;28;20439;-65
2023/06/19 01:46:00;;;;;;;5.45;4.90;;;21.40;99.90;;;;;;5060968;28;20039;-65
2023/06/19 01:48:27;;;;;;;5.82;5.03;;;21.50;99.90;;;;;;5065704;28;20051;-65
2023/06/19 01:50:53;;;;;;;5.40;4.90;;;21.40;99.90;;;;;;5054023;28;20033;-65
2023/06/19 01:53:19;;;;;;;5.60;5.07;;;21.20;99.90;;;;;;5055387;28;20044;-65
2023/06/19 01:55:44;;;;;;;5.85;5.25;;;21.40;99.90;;;;;;5056255;28;20098;-65
2023/06/19 01:58:10;;;;;;;5.68;4.95;;;21.30;99.90;;;;;;5052512;28;20108;-65
2023/06/19 02:00:35;;;;;;;6.78;5.03;;;21.20;99.90;;;;;;5062869;28;20164;-65
2023/06/19 02:03:02;;;;;;;7.20;4.93;;;21.40;99.90;;;;;;5057517;28;20048;-65
2023/06/19 02:05:27;;;;;;;5.97;5.30;;;21.50;99.90;;;;;;5057066;28;20187;-65
2023/06/19 02:07:53;;;;;;;5.70;5.00;;;21.40;99.90;;;;;;5055008;28;20748;-65
2023/06/19 02:10:18;;;;;;;6.05;5.20;;;21.40;99.90;;;;;;5051032;28;20190;-65
2023/06/19 02:12:44;;;;;;;6.10;4.65;;;21.60;99.90;;;;;;5055365;28;20420;-65
2023/06/19 02:15:10;;;;;;;5.55;4.97;;;21.60;99.90;;;;;;5052044;28;20049;-65
2023/06/19 02:17:35;;;;;;;5.32;4.82;;;21.80;99.90;;;;;;5056702;28;20067;-65
2023/06/19 02:20:01;;;;;;;7.20;5.35;;;21.80;99.90;;;;;;5056990;28;20525;-65
2023/06/19 02:22:26;;;;;;;6.38;5.20;;;21.80;99.90;;;;;;5054290;28;20098;-65
2023/06/19 02:24:52;;;;;;;5.35;4.85;;;21.90;99.90;;;;;;5053573;28;20048;-65
2023/06/19 02:27:17;;;;;;;7.03;5.40;;;21.60;99.90;;;;;;5054250;28;20112;-65
2023/06/19 02:29:43;;;;;;;7.00;5.65;;;21.60;99.90;;;;;;5061523;28;20394;-65
2023/06/19 02:32:08;;;;;;;8.75;6.10;;;21.90;99.90;;;;;;5058838;28;20051;-65
2023/06/19 02:34:34;;;;;;;10.68;5.68;;;21.90;99.90;;;;;;5053805;28;20035;-65
2023/06/19 02:37:00;;;;;;;7.10;5.38;;;21.90;99.90;;;;;;5055054;28;20548;-65
2023/06/19 02:39:25;;;;;;;5.75;4.63;;;21.80;99.90;;;;;;5053451;28;20047;-65
2023/06/19 02:41:51;;;;;;;7.05;5.35;;;21.80;99.90;;;;;;5062313;28;20033;-65
2023/06/19 02:44:17;;;;;;;5.40;4.72;;;21.90;99.90;;;;;;5058050;28;20029;-65
2023/06/19 02:46:42;;;;;;;7.88;4.95;;;22.00;99.90;;;;;;5054093;28;20102;-65
2023/06/19 02:49:08;;;;;;;6.90;5.25;;;22.00;99.90;;;;;;5059796;28;20040;-65
2023/06/19 02:51:33;;;;;;;5.95;4.88;;;22.10;99.90;;;;;;5060929;28;20035;-66
2023/06/19 02:53:59;;;;;;;4.60;4.20;;;22.00;99.90;;;;;;5056803;28;20037;-65
2023/06/19 02:56:26;;;;;;;5.00;4.30;;;22.00;99.90;;;;;;5051479;28;20126;-65
2023/06/19 02:58:52;;;;;;;4.07;3.67;;;22.00;99.90;;;;;;5055573;28;20048;-65
2023/06/19 03:01:17;;;;;;;4.70;4.10;;;22.00;99.90;;;;;;5058813;28;20037;-65
2023/06/19 03:03:43;;;;;;;5.72;4.15;;;22.00;99.90;;;;;;5054876;28;20060;-65
2023/06/19 03:06:08;;;;;;;5.22;3.90;;;22.00;99.90;;;;;;5054447;28;20492;-65
2023/06/19 03:08:35;;;;;;;4.78;4.05;;;21.90;99.90;;;;;;5053680;28;20484;-64
2023/06/19 03:11:03;;;;;;;5.15;3.53;;;21.80;99.90;;;;;;5055945;28;20032;-65
2023/06/19 03:13:30;;;;;;;4.60;3.83;;;21.90;99.90;;;;;;5052003;28;20481;-65
2023/06/19 03:15:56;;;;;;;5.45;3.60;;;21.80;99.90;;;;;;5056907;28;20036;-65
2023/06/19 03:18:22;;;;;;;6.18;3.70;;;21.80;99.90;;;;;;5052679;28;20171;-65
2023/06/19 03:20:48;;;;;;;4.43;3.40;;;21.80;99.90;;;;;;5054537;28;20047;-65
2023/06/19 03:23:13;;;;;;;5.93;3.78;;;21.80;99.90;;;;;;5054011;28;20044;-65
2023/06/19 03:25:42;;;;;;;4.05;3.33;;;21.70;99.90;;;;;;5049019;28;20024;-65
2023/06/19 03:28:08;;;;;;;5.97;3.80;;;21.70;99.90;;;;;;5053587;28;20029;-65
2023/06/19 03:30:34;;;;;;;7.53;3.80;;;21.70;99.90;;;;;;5058954;28;20033;-65
2023/06/19 03:32:59;;;;;;;4.07;3.60;;;21.70;99.90;;;;;;5054317;28;20036;-65
2023/06/19 03:35:25;;;;;;;5.60;3.80;;;21.70;99.90;;;;;;5050882;28;20044;-65
2023/06/19 03:37:50;;;;;;;6.82;3.67;;;21.70;99.90;;;;;;5050133;28;20059;-65
2023/06/19 03:40:16;;;;;;;5.20;3.95;;;21.50;99.90;;;;;;5054093;28;20064;-66
2023/06/19 03:42:42;;;;;;;4.45;3.58;;;21.60;99.90;;;;;;5055148;28;20040;-65
2023/06/19 03:45:08;;;;;;;4.43;3.70;;;21.50;99.90;;;;;;5049968;28;20029;-65
2023/06/19 03:47:33;;;;;;;4.95;3.70;;;21.40;99.90;;;;;;5053776;28;20567;-65
2023/06/19 03:49:59;;;;;;;4.25;3.58;;;21.40;99.90;;;;;;5051648;28;20039;-65
2023/06/19 03:52:24;;;;;;;4.10;3.53;;;21.40;99.90;;;;;;5059990;28;20110;-64
2023/06/19 03:54:50;;;;;;;5.25;3.72;;;21.20;99.90;;;;;;5065421;28;20040;-65
2023/06/19 03:57:15;;;;;;;5.00;3.42;;;21.40;99.90;;;;;;5056455;28;20047;-65
2023/06/19 03:59:41;;;;;;;5.10;3.40;;;21.40;99.90;;;;;;5063948;28;20062;-64
2023/06/19 04:02:06;;;;;;;4.22;3.60;;;21.30;99.90;;;;;;5055970;28;20033;-64
2023/06/19 04:04:32;;;;;;;4.13;3.45;;;21.30;99.90;;;;;;5053907;28;20420;-64
2023/06/19 04:06:59;;;;;;;4.13;3.45;;;21.20;99.90;;;;;;5051799;28;20357;-65
2023/06/19 04:09:24;;;;;;;4.50;3.75;;;21.20;99.90;;;;;;5050056;28;20445;-64
2023/06/19 04:11:50;;;;;;;6.78;4.20;;;21.20;99.90;;;;;;5052179;28;20098;-64
2023/06/19 04:14:16;;;;;;;6.40;3.70;;;21.10;99.90;;;;;;5047968;28;20044;-65
2023/06/19 04:16:41;;;;;;;3.80;3.38;;;21.20;99.90;;;;;;5053688;28;20392;-65
2023/06/19 04:19:07;;;;;;;7.05;3.70;;;21.20;99.90;;;;;;5052621;28;20118;-65
2023/06/19 04:21:32;;;;;;;4.25;3.40;;;21.10;99.90;;;;;;5052874;28;20089;-65
2023/06/19 04:23:58;;;;;;;4.90;3.80;;;21.00;99.90;;;;;;5053201;28;20041;-65
2023/06/19 04:26:24;;;;;;;3.63;3.20;;;20.90;99.90;;;;;;5049678;28;20036;-65
2023/06/19 04:28:50;;;;;;;5.00;3.95;;;21.10;99.90;;;;;;5055383;28;20044;-65
2023/06/19 04:31:17;;;;;;;5.78;3.50;;;21.10;99.90;;;;;;5057893;28;20773;-65
2023/06/19 04:33:44;;;;;;;6.47;3.58;;;21.10;99.90;;;;;;5056240;28;20089;-65
2023/06/19 04:36:09;;;;;;;6.45;3.72;;;21.00;99.90;;;;;;5049818;28;20040;-64
2023/06/19 04:38:35;;;;;;;4.25;3.38;;;20.90;99.90;;;;;;5053392;28;20654;-65
2023/06/19 04:41:00;;;;;;;5.15;3.70;;;20.90;99.90;;;;;;5055995;28;20139;-64
2023/06/19 04:43:26;;;;;;;5.15;3.65;;;20.60;99.90;;;;;;5050523;28;20041;-60
2023/06/19 04:45:52;;;;;;;6.28;3.40;;;20.90;99.90;;;;;;5054779;28;20036;-60
2023/06/19 04:48:17;;;;;;;4.35;3.65;;;20.90;99.90;;;;;;5050581;28;20029;-60
2023/06/19 04:50:43;;;;;;;4.30;3.65;;;20.90;99.90;;;;;;5048427;28;20025;-60
2023/06/19 04:53:08;;;;;;;4.85;3.47;;;21.10;99.90;;;;;;5051351;28;20028;-60
2023/06/19 04:55:34;;;;;;;5.95;3.70;;;21.20;99.90;;;;;;5061903;28;20033;-60
2023/06/19 04:57:59;;;;;;;4.75;3.75;;;21.20;99.90;;;;;;5058399;28;20039;-60
2023/06/19 05:00:25;;;;;;;8.45;4.28;;;21.20;99.90;;;;;;5047566;28;20129;-61
2023/06/19 05:02:51;;;;;;;4.88;3.50;;;21.20;99.90;;;;;;5054708;28;20570;-60
2023/06/19 05:05:17;;;;;;;3.72;3.25;;;21.40;99.90;;;;;;5049576;28;20390;-60
2023/06/19 05:07:42;;;;;;;4.88;3.28;;;21.50;99.90;;;;;;5050533;28;20059;-61
2023/06/19 05:10:08;;;;;;;4.05;3.45;;;21.30;99.90;;;;;;5046683;28;20033;-60
2023/06/19 05:12:35;;;;;;;4.32;3.30;;;21.50;99.90;;;;;;5055961;28;20024;-61
2023/06/19 05:15:01;;;;;;;6.93;3.10;;;21.50;99.90;;;;;;5056194;28;20455;-60
2023/06/19 05:17:27;;;;;;;6.20;3.30;;;21.40;99.90;;;;;;5052634;28;20037;-60
2023/06/19 05:19:52;;;;;;;9.10;3.22;;;21.40;99.90;;;;;;5053982;28;20047;-60
2023/06/19 05:22:18;;;;;;;4.75;3.05;;;21.30;99.90;;;;;;5048473;28;20110;-60
2023/06/19 05:24:44;;;;;;;4.55;3.55;;;21.40;99.90;;;;;;5052805;28;20056;-60
2023/06/19 05:27:10;;;;;;;3.90;2.72;;;21.40;99.90;;;;;;5049109;28;20092;-61
2023/06/19 05:29:36;;;;;;;6.78;3.30;;;21.50;99.90;;;;;;5046979;28;20041;-60
2023/06/19 05:32:01;;;;;;;3.97;3.20;;;21.50;99.90;;;;;;5052887;28;20447;-58
2023/06/19 05:34:27;;;;;;;3.53;2.88;;;21.60;99.90;;;;;;5048552;28;20075;-60
2023/06/19 05:36:53;;;;;;;4.18;3.58;;;21.50;99.90;;;;;;5051095;28;20037;-60
2023/06/19 05:39:18;;;;;;;5.28;3.10;;;21.50;99.90;;;;;;5051297;28;20039;-60
2023/06/19 05:41:45;;;;;;;4.40;3.20;;;21.50;99.90;;;;;;5053186;28;21731;-59
2023/06/19 05:44:15;;;;;;;6.35;3.33;;;21.50;99.90;;;;;;5049115;28;20477;-60
2023/06/19 05:46:41;;;;;;;4.60;2.90;;;21.40;99.90;;;;;;5048910;28;20389;-60
2023/06/19 05:49:07;;;;;;;3.65;2.88;;;21.30;99.90;;;;;;5047764;28;20040;-60
2023/06/19 05:51:32;;;;;;;4.95;2.58;;;21.30;99.90;;;;;;5045977;28;20048;-60
2023/06/19 05:54:03;;;;;;;5.22;3.35;;;21.30;99.90;;;;;;5050166;28;20040;-60
2023/06/19 05:56:32;;;;;;;4.38;2.97;;;21.50;99.90;;;;;;5046872;28;20036;-62
2023/06/19 05:58:59;;;;;;;4.85;2.72;;;21.60;99.90;;;;;;5062987;28;20404;-60
2023/06/19 06:01:27;;;;;;;4.25;2.85;;;21.60;99.90;;;;;;5058753;28;20037;-60
2023/06/19 06:03:54;;;;;;;4.43;2.63;;;21.60;99.90;;;;;;5045961;28;20122;-59
2023/06/19 06:06:19;;;;;;;5.80;3.00;;;21.70;99.90;;;;;;5053517;28;20370;-59
2023/06/19 06:08:45;;;;;;;5.28;2.92;;;21.80;99.90;;;;;;5053131;28;20037;-59
2023/06/19 06:11:10;;;;;;;6.03;3.45;;;21.90;99.90;;;;;;5050962;28;20040;-60
2023/06/19 06:13:36;;;;;;;3.58;2.72;;;21.60;99.90;;;;;;5049814;28;20123;-59
2023/06/19 06:16:02;;;;;;;3.90;2.95;;;21.60;99.90;;;;;;5055414;28;20060;-59
2023/06/19 06:18:27;;;;;;;7.43;3.22;;;21.60;99.90;;;;;;5056839;28;20071;-59
2023/06/19 06:20:53;;;;;;;2.95;2.60;;;21.50;99.90;;;;;;5057986;28;20136;-60
2023/06/19 06:23:18;;;;;;;6.65;2.75;;;21.50;99.90;;;;;;5059659;28;20055;-59
2023/06/19 06:25:45;;;;;;;3.53;2.88;;;21.60;99.90;;;;;;5064098;28;20035;-60
2023/06/19 06:28:11;;;;;;;4.05;2.78;;;21.60;99.90;;;;;;5065911;28;20043;-60
2023/06/19 06:30:36;;;;;;;5.90;3.10;;;21.60;99.90;;;;;;5060668;28;20029;-59
2023/06/19 06:33:02;;;;;;;4.90;2.85;;;21.60;99.90;;;;;;5051136;28;20048;-59
2023/06/19 06:35:28;;;;;;;6.68;2.80;;;21.60;99.90;;;;;;5066228;28;20552;-60
2023/06/19 06:37:53;;;;;;;5.15;2.90;;;21.70;99.90;;;;;;5060391;28;20127;-60
2023/06/19 06:40:19;;;;;;;4.35;2.70;;;21.70;99.90;;;;;;5067671;28;20033;-60
2023/06/19 06:42:45;;;;;;;4.32;2.67;;;21.70;99.90;;;;;;5063692;28;20075;-60
2023/06/19 06:45:10;;;;;;;5.97;2.60;;;21.70;99.90;;;;;;5063043;28;20111;-59
2023/06/19 06:47:36;;;;;;;3.90;2.83;;;21.50;99.90;;;;;;5060103;28;20064;-59
2023/06/19 06:50:02;;;;;;;3.67;2.72;;;21.40;99.90;;;;;;5062310;28;20060;-59
2023/06/19 06:52:27;;;;;;;4.82;3.30;;;21.50;99.90;;;;;;5066674;28;20060;-59
2023/06/19 06:54:53;;;;;;;4.72;2.83;;;21.50;99.90;;;;;;5066551;28;20040;-60
2023/06/19 06:57:19;;;;;;;6.57;2.97;;;21.70;99.90;;;;;;5066263;28;20499;-60
2023/06/19 06:59:44;;;;;;;3.78;2.83;;;21.50;99.90;;;;;;5055855;28;20492;-59
2023/06/19 07:02:10;;;;;;;3.88;2.95;;;21.40;99.90;;;;;;5066368;28;20518;-59
2023/06/19 07:04:35;;;;;;;4.72;3.15;;;21.50;99.90;;;;;;5062853;28;20040;-59
2023/06/19 07:07:03;;;;;;;5.82;3.10;;;21.60;99.90;;;;;;5060194;28;20041;-60
2023/06/19 07:09:29;;;;;;;6.38;3.15;;;21.80;99.90;;;;;;5066616;28;20442;-60
2023/06/19 07:11:54;;;;;;;3.35;2.90;;;21.60;99.90;;;;;;5068391;28;20116;-61
2023/06/19 07:14:20;;;;;;;5.45;3.40;;;21.80;99.90;;;;;;5069529;28;20041;-60
2023/06/19 07:16:46;;;;;;;6.85;3.30;;;22.00;99.90;;;;;;5064584;28;20032;-60
2023/06/19 07:19:12;;;;;;;6.25;3.15;;;21.80;99.90;;;;;;5067404;28;20064;-60
2023/06/19 07:21:38;;;;;;;3.78;2.75;;;21.70;99.90;;;;;;5061015;28;20067;-60
2023/06/19 07:24:05;;;;;;;4.68;3.00;;;21.90;99.90;;;;;;5064374;28;20412;-60
2023/06/19 07:26:31;;;;;;;5.90;2.75;;;;;;;;;;5069440;28;20039;-60
2023/06/19 07:28:56;;;;;;;4.93;3.17;;;22.00;99.90;;;;;;5069759;28;20087;-60
2023/06/19 07:31:22;;;;;;;4.65;2.67;;;21.80;99.90;;;;;;5065999;28;20436;-60
2023/06/19 07:33:48;;;;;;;4.95;2.67;;;21.90;99.90;;;;;;5069783;28;20088;-60
2023/06/19 07:36:14;;;;;;;3.88;2.45;;;21.80;99.90;;;;;;5062745;28;20036;-61
2023/06/19 07:38:43;;;;;;;3.03;2.30;;;21.60;99.90;;;;;;5066946;28;20068;-60
2023/06/19 07:41:10;;;;;;;4.50;2.60;;;21.60;99.90;;;;;;5064072;28;20066;-60
2023/06/19 07:43:36;;;;;;;4.47;2.72;;;21.80;99.90;;;;;;5068151;28;20075;-60
2023/06/19 07:46:02;;;;;;;4.65;2.55;;;22.00;99.90;;;;;;5063940;28;20041;-60
2023/06/19 07:48:28;;;;;;;3.40;2.58;;;22.20;99.90;;;;;;5067266;28;20033;-60
2023/06/19 07:50:54;;;;;;;4.10;3.30;;;22.40;99.90;;;;;;5066743;28;20036;-60
2023/06/19 07:53:20;;;;;;;4.05;3.60;;;22.50;99.90;;;;;;5061076;28;20468;-60
2023/06/19 07:55:45;;;;;;;6.93;3.30;;;22.50;99.90;;;;;;5066269;28;20036;-60
2023/06/19 07:58:11;;;;;;;6.07;3.42;;;22.50;99.90;;;;;;5066075;28;20047;-60
2023/06/19 08:00:37;;;;;;;4.53;3.35;;;22.70;99.90;;;;;;5059782;28;20036;-60
2023/06/19 08:03:02;;;;;;;5.13;2.80;;;22.80;99.90;;;;;;5061810;28;20561;-60
2023/06/19 08:05:28;;;;;;;6.80;3.03;;;22.90;99.90;;;;;;5064696;28;20364;-60
2023/06/19 08:07:53;;;;;;;5.00;2.95;;;22.90;99.90;;;;;;5064250;28;20119;-61
2023/06/19 08:10:19;;;;;;;3.90;2.90;;;22.90;99.90;;;;;;5065737;28;20511;-60
2023/06/19 08:12:45;;;;;;;3.60;2.50;;;22.90;99.90;;;;;;5066602;28;20082;-60
2023/06/19 08:15:13;;;;;;;4.40;2.90;;;23.10;99.90;;;;;;5065020;28;20505;-60
2023/06/19 08:17:42;;;;;;;7.25;2.88;;;23.10;99.90;;;;;;5064808;28;20071;-60
2023/06/19 08:20:08;;;;;;;5.13;2.50;;;23.20;99.90;;;;;;5066939;28;20048;-60
2023/06/19 08:22:34;;;;;;;7.32;2.60;;;23.30;99.90;;;;;;5064400;28;20124;-60
2023/06/19 08:24:59;;;;;;;3.85;2.83;;;23.40;99.90;;;;;;5059313;28;20183;-60
2023/06/19 08:27:25;;;;;;;4.53;2.70;;;23.40;99.90;;;;;;5062881;28;20039;-60
2023/06/19 08:29:50;;;;;;;4.60;2.90;;;23.30;99.90;;;;;;5066930;28;20032;-60
2023/06/19 08:32:16;;;;;;;5.47;3.00;;;23.20;99.90;;;;;;5065410;28;20036;-59
2023/06/19 08:34:42;;;;;;;4.85;3.00;;;23.20;99.90;;;;;;5065196;28;20055;-60
2023/06/19 08:37:09;;;;;;;4.97;3.00;;;23.20;99.90;;;;;;5051598;28;20058;-60
2023/06/19 08:39:37;;;;;;;3.63;2.83;;;23.20;99.90;;;;;;5077682;28;20040;-60
2023/06/19 08:42:04;;;;;;;4.75;2.75;;;23.20;99.90;;;;;;5054516;28;20040;-60
2023/06/19 08:44:30;;;;;;;4.97;2.70;;;23.20;99.90;;;;;;5063745;28;20036;-60
2023/06/19 08:46:57;;;;;;;8.10;2.92;;;23.20;99.90;;;;;;5058756;28;20480;-60
2023/06/19 08:49:23;;;;;;;4.13;3.25;;;23.30;99.90;;;;;;5066067;28;20040;-60
2023/06/19 08:51:49;;;;;;;4.55;3.00;;;23.40;99.90;;;;;;5067531;28;20032;-60
2023/06/19 08:54:15;;;;;;;5.38;2.83;;;23.30;99.90;;;;;;5060903;28;20118;-60
2023/06/19 08:56:40;;;;;;;5.60;3.30;;;23.50;99.90;;;;;;5060754;28;20433;-60
2023/06/19 08:59:16;;;;;;;3.15;2.65;;;23.50;99.90;;;;;;5057866;28;20140;-60
2023/06/19 09:01:53;;;;;;;4.05;2.80;;;23.70;99.90;;;;;;5060098;28;20033;-60
2023/06/19 09:04:26;;;;;;;6.00;3.22;;;23.80;99.90;;;;;;5062456;28;20458;-60
2023/06/19 09:06:58;;;;;;;6.03;2.72;;;24.00;99.90;;;;;;5061878;28;20273;-60
2023/06/19 09:09:25;;;;;;;6.68;2.67;;;24.20;99.90;;;;;;5063663;28;20725;-60
2023/06/19 09:12:00;;;;;;;3.88;2.50;;;24.20;99.90;;;;;;5063423;28;20029;-61
2023/06/19 09:14:40;;;;;;;3.00;2.65;;;24.20;99.90;;;;;;5061728;28;20465;-60
2023/06/19 09:17:07;;;;;;;5.53;2.70;;;24.20;99.90;;;;;;5059979;28;20048;-60
2023/06/19 09:19:37;;;;;;;3.45;2.72;;;24.00;99.90;;;;;;5055383;28;20048;-60
2023/06/19 09:22:04;;;;;;;7.65;2.97;;;24.00;99.90;;;;;;5062411;28;20045;-60
2023/06/19 09:24:41;;;;;;;5.63;3.03;;;24.10;99.90;;;;;;5064532;28;20447;-60
2023/06/19 09:27:13;;;;;;;6.68;2.90;;;24.20;99.90;;;;;;5058985;28;20036;-60
2023/06/19 09:29:43;;;;;;;6.73;3.03;;;24.30;99.90;;;;;;5063949;28;20492;-60
2023/06/19 09:32:15;;;;;;;6.53;3.13;;;;;;;;;;5055131;28;20623;-60
2023/06/19 09:34:41;;;;;;;6.47;3.05;;;24.30;99.90;;;;;;5055458;28;20040;-60
2023/06/19 09:37:07;;;;;;;6.00;3.50;;;24.80;99.90;;;;;;5060242;28;20041;-60
2023/06/19 09:39:35;;;;;;;5.30;3.42;;;24.40;99.90;;;;;;5061002;28;20032;-60
2023/06/19 09:42:03;;;;;;;4.15;3.35;;;24.40;99.90;;;;;;5064223;28;20032;-60
2023/06/19 09:44:31;;;;;;;5.70;3.33;;;24.60;99.90;;;;;;5062658;28;20041;-60
2023/06/19 09:47:01;;;;;;;5.15;3.38;;;24.40;99.90;;;;;;5067326;28;20530;-60
2023/06/19 09:49:31;;;;;;;6.55;3.90;;;24.40;99.90;;;;;;5059016;28;20491;-60
2023/06/19 09:51:57;;;;;;;4.78;3.92;;;24.40;99.90;;;;;;5062251;28;20056;-62
2023/06/19 09:54:24;;;;;;;6.45;4.00;;;24.60;99.90;;;;;;5058722;28;20481;-60
2023/06/19 09:56:51;;;;;;;4.05;3.50;;;24.60;99.90;;;;;;5064073;28;20075;-60
2023/06/19 09:59:18;;;;;;;5.30;3.97;;;24.60;99.90;;;;;;5056804;28;20091;-60
2023/06/19 10:01:45;;;;;;;7.10;4.00;;;24.70;99.90;;;;;;5062232;28;20045;-60
2023/06/19 10:04:12;;;;;;;5.63;4.20;;;24.60;99.90;;;;;;5059084;28;20396;-61
2023/06/19 10:06:45;;;;;;;5.65;3.75;;;24.80;99.90;;;;;;5059834;28;20036;-60
2023/06/19 10:09:11;;;;;;;;;;;25.10;99.90;;;;;;5056457;28;20035;-61
2023/06/19 10:11:46;;;;;;;7.25;4.63;;;25.20;99.90;;;;;;5063268;28;19915;-60
2023/06/19 10:14:12;;;;;;;5.32;4.07;;;25.00;99.90;;;;;;5067951;28;20392;-60
2023/06/19 10:16:40;;;;;;;6.88;4.55;;;25.30;99.90;;;;;;5067759;28;20503;-61
2023/06/19 10:19:15;;;;;;;6.00;4.38;;;25.50;99.90;;;;;;5063800;28;20037;-60
2023/06/19 10:21:46;;;;;;;5.80;4.50;;;25.20;99.90;;;;;;5062088;28;20047;-60
2023/06/19 10:24:19;;;;;;;6.65;4.80;;;25.30;99.90;;;;;;5066835;28;20498;-61
2023/06/19 10:27:04;;;;;;;6.10;5.00;;;25.30;99.90;;;;;;5065772;28;20060;-61
2023/06/19 10:29:40;;;;;;;5.57;4.25;;;25.30;99.90;;;;;;5066784;28;20371;-60
2023/06/19 10:32:06;;;;;;;7.32;5.22;;;25.40;99.90;;;;;;5069648;28;20048;-60
2023/06/19 10:34:36;;;;;;;7.13;5.10;;;25.50;99.90;;;;;;5068825;28;20036;-60
2023/06/19 10:37:01;;;;;;;6.63;4.38;;;25.20;99.90;;;;;;5066157;28;20040;-60
2023/06/19 10:39:27;;;;;;;6.00;5.03;;;25.10;99.90;;;;;;5064614;28;20043;-60
2023/06/19 10:41:53;;;;;;;7.60;4.57;;;25.20;99.90;;;;;;5066067;28;20536;-60
2023/06/19 10:44:18;;;;;;;7.40;4.85;;;25.40;99.90;;;;;;5066303;28;20064;-60
2023/06/19 10:46:44;;;;;;;6.07;4.90;;;25.60;99.90;;;;;;5063896;28;20435;-60
2023/06/19 10:49:11;;;;;;;8.48;4.95;;;25.50;99.90;;;;;;5057335;28;20477;-60
2023/06/19 10:51:43;;;;;;;5.68;4.78;;;25.50;99.90;;;;;;5068213;28;20040;-60
2023/06/19 10:54:09;;;;;;;9.70;5.43;;;25.50;99.90;;;;;;5058295;28;20480;-58
2023/06/19 10:56:35;;;;;;;9.10;5.60;;;25.40;99.90;;;;;;5063083;28;20033;-60
2023/06/19 10:59:06;;;;;;;8.45;4.97;;;25.40;99.90;;;;;;5077940;28;20123;-60
2023/06/19 11:02:01;;;;;;;7.97;4.78;;;25.40;99.90;;;;;;5069539;28;20041;-60
2023/06/19 11:04:28;;;;;;;8.10;5.10;;;25.50;99.90;;;;;;5064623;28;20440;-60
2023/06/19 11:06:53;;;;;;;8.57;4.90;;;25.60;99.90;;;;;;5065354;28;20059;-61
2023/06/19 11:09:19;;;;;;;5.68;4.50;;;25.60;99.90;;;;;;5064531;28;20403;-60
2023/06/19 11:11:46;;;;;;;7.82;5.22;;;25.80;99.90;;;;;;5059661;28;20043;-60
2023/06/19 11:14:13;;;;;;;7.95;4.53;;;25.80;99.90;;;;;;5062153;28;20163;-60
2023/06/19 11:16:47;;;;;;;9.70;4.68;;;26.00;99.90;;;;;;5071779;28;20097;-60
2023/06/19 11:19:20;;;;;;;7.70;4.60;;;25.90;99.90;;;;;;5065433;28;20055;-60
2023/06/19 11:21:50;;;;;;;6.30;4.65;;;25.90;99.90;;;;;;5062142;28;20452;-61
2023/06/19 11:24:16;;;;;;;6.07;4.85;;;26.10;99.90;;;;;;5065005;28;20040;-60
2023/06/19 11:26:49;;;;;;;7.03;4.85;;;26.10;99.90;;;;;;5060453;28;20040;-60
2023/06/19 11:29:25;;;;;;;6.78;4.68;;;26.10;99.90;;;;;;5059175;28;20048;-61
2023/06/19 11:31:54;;;;;;;6.47;4.70;;;26.20;99.90;;;;;;5065589;28;20716;-61
2023/06/19 11:34:30;;;;;;;8.30;4.60;;;26.00;99.90;;;;;;5065445;28;20044;-61
2023/06/19 11:36:56;;;;;;;6.97;4.57;;;26.00;99.90;;;;;;5055094;28;20496;-61
2023/06/19 11:39:22;;;;;;;6.15;4.97;;;25.90;99.90;;;;;;5059698;28;20129;-61
2023/06/19 11:41:47;;;;;;;15.65;6.03;;;26.00;99.90;;;;;;5067274;28;20391;-61
2023/06/19 11:44:13;;;;;;;8.90;4.72;;;26.10;99.90;;;;;;5063173;28;20045;-61
2023/06/19 11:46:38;;;;;;;7.28;5.22;;;26.10;99.90;;;;;;5071661;28;20135;-61
2023/06/19 11:49:22;;;;;;;8.07;5.18;;;26.00;99.90;;;;;;5060771;28;20036;-61
2023/06/19 11:51:48;;;;;;;9.32;5.25;;;26.10;99.90;;;;;;5059853;28;20043;-61
2023/06/19 11:54:23;;;;;;;8.95;4.90;;;25.80;99.90;;;;;;5059342;28;20045;-61
2023/06/19 11:56:48;;;;;;;10.38;5.38;;;26.00;99.90;;;;;;5076240;28;20032;-61
2023/06/19 11:59:14;;;;;;;8.85;4.88;;;26.20;99.90;;;;;;5072715;28;20047;-61
2023/06/19 12:01:40;;;;;;;10.20;5.10;;;26.40;99.90;;;;;;5064174;28;20028;-61
2023/06/19 12:04:06;;;;;;;6.72;4.88;;;26.50;99.90;;;;;;5063891;28;20064;-61
2023/06/19 12:06:32;;;;;;;7.13;4.72;;;26.60;99.90;;;;;;5062658;28;20078;-61
2023/06/19 12:08:58;;;;;;;7.88;5.00;;;26.70;99.90;;;;;;5063664;28;20045;-61
2023/06/19 12:11:24;;;;;;;6.82;4.88;;;26.80;99.90;;;;;;5060804;28;20052;-61
2023/06/19 12:13:50;;;;;;;7.63;5.57;;;26.90;99.90;;;;;;5065070;28;20033;-61
2023/06/19 12:16:16;;;;;;;7.95;5.38;;;26.90;99.90;;;;;;5057398;28;20028;-61
2023/06/19 12:18:42;;;;;;;7.40;5.15;;;26.90;99.90;;;;;;5068484;28;20039;-61
2023/06/19 12:21:08;;;;;;;7.78;5.03;;;26.70;99.90;;;;;;5059992;28;20036;-61
2023/06/19 12:23:33;;;;;;;5.72;5.10;;;26.60;99.90;;;;;;5064660;28;20119;-61
2023/06/19 12:25:59;;;;;;;6.07;5.05;;;26.60;99.90;;;;;;5070358;28;20036;-61
2023/06/19 12:28:25;;;;;;;8.75;5.30;;;26.50;99.90;;;;;;5067478;28;20090;-61
2023/06/19 12:30:51;;;;;;;8.10;4.80;;;26.60;99.90;;;;;;5066790;28;20047;-61
2023/06/19 12:33:18;;;;;;;9.25;5.13;;;26.60;99.90;;;;;;5061689;28;20071;-61
2023/06/19 12:35:44;;;;;;;8.80;6.65;;;26.50;99.90;;;;;;5067897;28;20467;-61
2023/06/19 12:38:10;;;;;;;7.32;5.43;;;26.20;99.90;;;;;;5063288;28;20488;-61
2023/06/19 12:40:39;;;;;;;7.65;5.20;;;26.30;99.90;;;;;;5064718;28;20388;-61
2023/06/19 12:43:04;;;;;;;10.65;5.00;;;26.20;99.90;;;;;;5066091;28;20527;-61
2023/06/19 12:45:30;;;;;;;7.70;5.30;;;26.30;99.90;;;;;;5063037;28;20106;-61